createdAt,value
2023-03-23T16:00:44.303Z,101011.19
2023-03-23T16:03:59.537Z,101019.34
2023-03-23T16:07:07.292Z,101009.13
2023-03-23T16:10:19.368Z,101011.38
2023-03-23T16:13:25.143Z,101008.75
2023-03-23T16:16:49.721Z,101002.31
2023-03-23T16:19:55.889Z,101010.19
2023-03-23T16:23:01.320Z,101014.75
2023-03-23T16:26:07.218Z,101002.81
2023-03-23T16:29:28.427Z,101006.19
2023-03-23T16:35:44.488Z,101004.75
2023-03-23T16:38:53.038Z,101004.50
2023-03-23T16:42:00.944Z,101006.22
2023-03-23T16:45:07.387Z,101010.28
2023-03-23T16:48:15.063Z,101017.63
2023-03-23T16:51:21.239Z,101019.34
2023-03-23T16:54:26.884Z,101019.13
2023-03-23T16:57:35.489Z,101024.31
2023-03-23T17:00:41.666Z,101027.88
2023-03-23T17:03:47.131Z,101027.38
2023-03-23T17:06:52.658Z,101038.78
2023-03-23T17:09:58.626Z,101036.91
2023-03-23T17:13:04.632Z,101036.13
2023-03-23T17:16:10.856Z,101034.81
2023-03-23T17:19:16.528Z,101036.47
2023-03-23T17:22:22.199Z,101040.00
2023-03-23T17:25:30.629Z,101034.88
2023-03-23T17:28:36.563Z,101039.19
2023-03-23T17:31:42.103Z,101046.75
2023-03-23T17:34:48.100Z,101049.97
2023-03-23T17:37:53.705Z,101056.97
2023-03-23T17:41:00.722Z,101060.75
2023-03-23T17:44:07.034Z,101066.94
2023-03-23T17:47:13.107Z,101060.75
2023-03-23T17:50:19.285Z,101063.94
2023-03-23T17:53:26.730Z,101069.84
2023-03-23T17:56:32.722Z,101068.22
2023-03-23T17:59:38.339Z,101076.00
2023-03-23T18:02:44.011Z,101075.38
2023-03-23T18:05:51.325Z,101073.22
2023-03-23T18:08:56.826Z,101077.50
2023-03-23T18:12:02.030Z,101084.22
2023-03-23T18:15:09.496Z,101075.84
2023-03-23T18:18:14.690Z,101087.97
2023-03-23T18:21:20.177Z,101085.19
2023-03-23T18:24:25.663Z,101091.97
2023-03-23T18:27:31.836Z,101096.47
2023-03-23T18:30:37.252Z,101096.94
2023-03-23T18:33:46.832Z,101098.56
2023-03-23T18:36:52.540Z,101102.22
2023-03-23T18:39:57.973Z,101106.16
2023-03-23T18:43:03.366Z,101108.84
2023-03-23T18:46:11.333Z,101113.69
2023-03-23T18:49:16.425Z,101111.72
2023-03-23T18:52:26.866Z,101112.31
2023-03-23T18:55:32.596Z,101108.84
2023-03-23T18:58:38.709Z,101104.72
2023-03-23T19:01:44.154Z,101120.72
2023-03-23T19:04:50.157Z,101116.13
2023-03-23T19:07:55.682Z,101115.75
2023-03-23T19:11:04.423Z,101118.69
2023-03-23T19:14:09.874Z,101126.16
2023-03-23T19:17:16.166Z,101125.06
2023-03-23T19:23:35.444Z,101124.78
2023-03-23T19:26:43.575Z,101138.41
2023-03-23T19:29:49.088Z,101139.72
2023-03-23T19:32:54.880Z,101134.91
2023-03-23T19:36:09.137Z,101139.66
2023-03-23T19:39:17.912Z,101130.69
2023-03-23T19:42:23.852Z,101136.44
2023-03-23T19:45:29.344Z,101144.78
2023-03-23T19:48:34.796Z,101142.03
2023-03-23T19:51:41.120Z,101148.66
2023-03-23T19:54:46.543Z,101151.22
2023-03-23T19:57:52.328Z,101149.81
2023-03-23T20:01:00.943Z,101145.41
2023-03-23T20:04:07.181Z,101151.53
2023-03-23T20:07:12.763Z,101155.47
2023-03-23T20:10:18.713Z,101162.16
2023-03-23T20:13:24.322Z,101163.28
2023-03-23T20:16:30.036Z,101162.88
2023-03-23T20:19:36.636Z,101168.69
2023-03-23T20:22:42.898Z,101165.63
2023-03-23T20:28:56.538Z,101177.81
2023-03-23T20:32:02.333Z,101180.72
2023-03-23T20:35:10.964Z,101178.34
2023-03-23T20:38:18.608Z,101183.97
2023-03-23T20:41:24.719Z,101177.00
2023-03-23T20:44:35.211Z,101185.25
2023-03-23T20:47:41.840Z,101185.44
2023-03-23T20:50:47.495Z,101186.88
2023-03-23T20:53:53.565Z,101197.50
2023-03-23T20:56:59.686Z,101200.84
2023-03-23T21:00:06.903Z,101199.38
2023-03-23T21:03:13.750Z,101206.38
2023-03-23T21:06:19.588Z,101212.63
2023-03-23T21:09:25.632Z,101204.75
2023-03-23T21:12:31.077Z,101214.88
2023-03-23T21:15:36.813Z,101209.41
2023-03-23T21:18:42.628Z,101206.50
2023-03-23T21:21:56.835Z,101203.19
2023-03-23T21:25:02.809Z,101203.19
2023-03-23T21:28:09.299Z,101209.59
2023-03-23T21:31:15.451Z,101198.13
2023-03-23T21:34:20.869Z,101198.06
2023-03-23T21:37:26.641Z,101202.50
2023-03-23T21:40:32.418Z,101200.88
2023-03-23T21:43:41.054Z,101201.88
2023-03-23T21:46:46.988Z,101198.69
2023-03-23T21:49:52.828Z,101197.22
2023-03-23T21:52:58.100Z,101189.78
2023-03-23T21:56:06.099Z,101194.31
2023-03-23T21:59:11.875Z,101202.59
2023-03-23T22:02:17.674Z,101192.81
2023-03-23T22:05:23.642Z,101202.03
2023-03-23T22:08:30.257Z,101199.84
2023-03-23T22:11:37.634Z,101200.91
2023-03-23T22:14:43.178Z,101198.84
2023-03-23T22:17:48.985Z,101200.34
2023-03-23T22:20:54.625Z,101192.81
2023-03-23T22:24:01.352Z,101195.47
2023-03-23T22:27:07.396Z,101203.59
2023-03-23T22:30:13.832Z,101192.22
2023-03-23T22:33:20.249Z,101202.19
2023-03-23T22:36:28.273Z,101206.78
2023-03-23T22:39:35.110Z,101205.34
2023-03-23T22:42:40.959Z,101203.75
2023-03-23T22:45:46.698Z,101200.50
2023-03-23T22:48:52.898Z,101197.00
2023-03-23T22:51:58.308Z,101190.72
2023-03-23T22:55:06.053Z,101195.84
2023-03-23T22:58:12.346Z,101190.59
2023-03-23T23:01:23.165Z,101191.16
2023-03-23T23:04:30.811Z,101194.78
2023-03-23T23:07:37.180Z,101201.06
2023-03-23T23:10:46.597Z,101183.28
2023-03-23T23:13:53.036Z,101188.28
2023-03-23T23:16:58.577Z,101185.25
2023-03-23T23:20:07.975Z,101183.38
2023-03-23T23:23:13.537Z,101194.44
2023-03-23T23:26:20.212Z,101187.44
2023-03-23T23:29:26.154Z,101183.41
2023-03-23T23:32:32.510Z,101181.88
2023-03-23T23:35:38.710Z,101174.66
2023-03-23T23:38:45.097Z,101169.56
2023-03-23T23:41:51.050Z,101171.22
2023-03-23T23:44:56.604Z,101167.59
2023-03-23T23:48:02.315Z,101178.28
2023-03-23T23:51:08.614Z,101177.94
2023-03-23T23:54:15.168Z,101177.69
2023-03-23T23:57:20.644Z,101180.72
